sensor_id;sensor_type;location;lat;lon;timestamp;pressure;altitude;pressure_sealevel;temperature;humidity
27429;BME280;14881;48.092;11.574;2023-01-15T00:02:27;94627.84;;;7.68;100.00
27429;BME280;14881;48.092;11.574;2023-01-15T00:04:56;94606.75;;;7.52;100.00
27429;BME280;14881;48.092;11.574;2023-01-15T00:07:23;94605.00;;;7.42;100.00
27429;BME280;14881;48.092;11.574;2023-01-15T00:09:51;94604.09;;;7.28;100.00
27429;BME280;14881;48.092;11.574;2023-01-15T00:12:19;94588.50;;;7.25;100.00
27429;BME280;14881;48.092;11.574;2023-01-15T00:14:47;94583.78;;;7.12;100.00
27429;BME280;14881;48.092;11.574;2023-01-15T00:17:14;94580.38;;;7.06;100.00
27429;BME280;14881;48.092;11.574;2023-01-15T00:19:42;94567.66;;;7.07;100.00
27429;BME280;14881;48.092;11.574;2023-01-15T00:22:11;94568.75;;;7.06;100.00
27429;BME280;14881;48.092;11.574;2023-01-15T00:24:39;94563.66;;;7.04;100.00
27429;BME280;14881;48.092;11.574;2023-01-15T00:27:24;94560.44;;;7.02;100.00
27429;BME280;14881;48.092;11.574;2023-01-15T00:30:10;94552.69;;;7.14;100.00
27429;BME280;14881;48.092;11.574;2023-01-15T00:32:39;94559.34;;;7.22;100.00
27429;BME280;14881;48.092;11.574;2023-01-15T00:35:10;94551.19;;;7.27;100.00
27429;BME280;14881;48.092;11.574;2023-01-15T00:37:40;94553.50;;;7.33;100.00
27429;BME280;14881;48.092;11.574;2023-01-15T00:40:08;94542.19;;;7.31;100.00
27429;BME280;14881;48.092;11.574;2023-01-15T00:42:36;94554.03;;;7.36;100.00
27429;BME280;14881;48.092;11.574;2023-01-15T00:45:05;94539.19;;;7.33;100.00
27429;BME280;14881;48.092;11.574;2023-01-15T00:47:36;94541.38;;;7.31;100.00
27429;BME280;14881;48.092;11.574;2023-01-15T00:50:05;94543.50;;;7.34;100.00
27429;BME280;14881;48.092;11.574;2023-01-15T00:52:33;94547.28;;;7.33;100.00
27429;BME280;14881;48.092;11.574;2023-01-15T00:55:03;94544.31;;;7.34;100.00
27429;BME280;14881;48.092;11.574;2023-01-15T00:57:31;94543.00;;;7.32;100.00
27429;BME280;14881;48.092;11.574;2023-01-15T00:59:59;94549.47;;;7.31;100.00
27429;BME280;14881;48.092;11.574;2023-01-15T01:02:27;94533.38;;;7.26;100.00
27429;BME280;14881;48.092;11.574;2023-01-15T01:04:55;94550.75;;;7.20;100.00
27429;BME280;14881;48.092;11.574;2023-01-15T01:07:22;94538.97;;;7.11;100.00
27429;BME280;14881;48.092;11.574;2023-01-15T01:09:50;94538.78;;;7.07;100.00
27429;BME280;14881;48.092;11.574;2023-01-15T01:12:19;94544.47;;;7.06;100.00
27429;BME280;14881;48.092;11.574;2023-01-15T01:14:49;94533.44;;;7.02;100.00
27429;BME280;14881;48.092;11.574;2023-01-15T01:17:16;94530.72;;;7.02;100.00
27429;BME280;14881;48.092;11.574;2023-01-15T01:19:44;94520.44;;;7.04;100.00
27429;BME280;14881;48.092;11.574;2023-01-15T01:22:12;94524.53;;;7.02;100.00
27429;BME280;14881;48.092;11.574;2023-01-15T01:24:39;94534.28;;;6.97;100.00
27429;BME280;14881;48.092;11.574;2023-01-15T01:27:07;94544.47;;;7.06;100.00
27429;BME280;14881;48.092;11.574;2023-01-15T01:29:36;94524.47;;;7.07;100.00
27429;BME280;14881;48.092;11.574;2023-01-15T01:32:04;94525.47;;;7.11;100.00
27429;BME280;14881;48.092;11.574;2023-01-15T01:34:32;94524.09;;;7.13;100.00
27429;BME280;14881;48.092;11.574;2023-01-15T01:37:00;94504.09;;;7.14;100.00
27429;BME280;14881;48.092;11.574;2023-01-15T01:39:27;94507.88;;;7.13;100.00
27429;BME280;14881;48.092;11.574;2023-01-15T01:41:55;94494.25;;;7.05;100.00
27429;BME280;14881;48.092;11.574;2023-01-15T01:45:03;94492.69;;;6.98;100.00
27429;BME280;14881;48.092;11.574;2023-01-15T01:47:32;94477.25;;;6.85;100.00
27429;BME280;14881;48.092;11.574;2023-01-15T01:50:04;94470.88;;;6.76;100.00
27429;BME280;14881;48.092;11.574;2023-01-15T01:52:38;94473.44;;;6.68;100.00
27429;BME280;14881;48.092;11.574;2023-01-15T01:55:09;94458.97;;;6.58;100.00
27429;BME280;14881;48.092;11.574;2023-01-15T01:57:37;94455.28;;;6.54;100.00
27429;BME280;14881;48.092;11.574;2023-01-15T02:00:09;94455.91;;;6.46;100.00
27429;BME280;14881;48.092;11.574;2023-01-15T02:02:39;94447.28;;;6.44;100.00
27429;BME280;14881;48.092;11.574;2023-01-15T02:05:08;94434.47;;;6.36;100.00
27429;BME280;14881;48.092;11.574;2023-01-15T02:07:39;94433.16;;;6.34;100.00
27429;BME280;14881;48.092;11.574;2023-01-15T02:10:12;94432.06;;;6.35;100.00
27429;BME280;14881;48.092;11.574;2023-01-15T02:12:41;94427.19;;;6.37;100.00
27429;BME280;14881;48.092;11.574;2023-01-15T02:15:17;94420.19;;;6.36;100.00
27429;BME280;14881;48.092;11.574;2023-01-15T02:17:48;94412.59;;;6.38;100.00
27429;BME280;14881;48.092;11.574;2023-01-15T02:20:26;94415.00;;;6.39;100.00
27429;BME280;14881;48.092;11.574;2023-01-15T02:26:12;94416.31;;;6.42;100.00
27429;BME280;14881;48.092;11.574;2023-01-15T02:28:49;94412.22;;;6.44;100.00
27429;BME280;14881;48.092;11.574;2023-01-15T02:31:26;94403.03;;;6.45;100.00
27429;BME280;14881;48.092;11.574;2023-01-15T02:33:58;94403.03;;;6.45;100.00
27429;BME280;14881;48.092;11.574;2023-01-15T02:36:30;94393.28;;;6.49;100.00
27429;BME280;14881;48.092;11.574;2023-01-15T02:39:03;94394.88;;;6.50;100.00
27429;BME280;14881;48.092;11.574;2023-01-15T02:41:36;94391.38;;;6.50;100.00
27429;BME280;14881;48.092;11.574;2023-01-15T02:44:07;94395.69;;;6.51;100.00
27429;BME280;14881;48.092;11.574;2023-01-15T02:46:38;94386.28;;;6.48;100.00
27429;BME280;14881;48.092;11.574;2023-01-15T02:49:08;94390.59;;;6.49;100.00
27429;BME280;14881;48.092;11.574;2023-01-15T02:51:40;94387.06;;;6.49;100.00
27429;BME280;14881;48.092;11.574;2023-01-15T02:54:13;94391.66;;;6.48;100.00
27429;BME280;14881;48.092;11.574;2023-01-15T02:56:43;94376.22;;;6.54;100.00
27429;BME280;14881;48.092;11.574;2023-01-15T02:59:17;94383.13;;;6.60;100.00
27429;BME280;14881;48.092;11.574;2023-01-15T03:01:50;94381.25;;;6.60;100.00
27429;BME280;14881;48.092;11.574;2023-01-15T03:04:27;94376.06;;;6.64;100.00
27429;BME280;14881;48.092;11.574;2023-01-15T03:07:04;94363.94;;;6.61;100.00
27429;BME280;14881;48.092;11.574;2023-01-15T03:09:34;94359.88;;;6.64;100.00
27429;BME280;14881;48.092;11.574;2023-01-15T03:12:05;94350.97;;;6.63;100.00
27429;BME280;14881;48.092;11.574;2023-01-15T03:14:40;94350.91;;;6.69;100.00
27429;BME280;14881;48.092;11.574;2023-01-15T03:17:14;94350.31;;;6.72;100.00
27429;BME280;14881;48.092;11.574;2023-01-15T03:19:47;94351.31;;;6.76;100.00
27429;BME280;14881;48.092;11.574;2023-01-15T03:22:19;94339.44;;;6.77;100.00
27429;BME280;14881;48.092;11.574;2023-01-15T03:24:50;94339.94;;;6.79;100.00
27429;BME280;14881;48.092;11.574;2023-01-15T03:27:20;94325.44;;;6.75;100.00
27429;BME280;14881;48.092;11.574;2023-01-15T03:29:51;94326.84;;;6.72;100.00
27429;BME280;14881;48.092;11.574;2023-01-15T03:32:21;94331.00;;;6.64;100.00
27429;BME280;14881;48.092;11.574;2023-01-15T03:34:51;94327.56;;;6.59;100.00
27429;BME280;14881;48.092;11.574;2023-01-15T03:37:19;94329.78;;;6.57;100.00
27429;BME280;14881;48.092;11.574;2023-01-15T03:39:49;94326.56;;;6.55;100.00
27429;BME280;14881;48.092;11.574;2023-01-15T03:42:32;94321.25;;;6.50;100.00
27429;BME280;14881;48.092;11.574;2023-01-15T03:45:05;94319.28;;;6.37;100.00
27429;BME280;14881;48.092;11.574;2023-01-15T03:47:44;94319.41;;;6.26;100.00
27429;BME280;14881;48.092;11.574;2023-01-15T03:50:19;94312.00;;;6.18;100.00
27429;BME280;14881;48.092;11.574;2023-01-15T03:52:54;94322.28;;;6.16;100.00
27429;BME280;14881;48.092;11.574;2023-01-15T03:55:27;94313.09;;;6.17;100.00
27429;BME280;14881;48.092;11.574;2023-01-15T03:58:01;94317.91;;;6.20;100.00
27429;BME280;14881;48.092;11.574;2023-01-15T04:00:35;94310.09;;;6.19;100.00
27429;BME280;14881;48.092;11.574;2023-01-15T04:03:07;94310.63;;;6.21;100.00
27429;BME280;14881;48.092;11.574;2023-01-15T04:05:38;94297.34;;;6.24;100.00
27429;BME280;14881;48.092;11.574;2023-01-15T04:08:07;94291.47;;;6.22;100.00
27429;BME280;14881;48.092;11.574;2023-01-15T04:10:36;94295.25;;;6.21;100.00
27429;BME280;14881;48.092;11.574;2023-01-15T04:13:05;94302.03;;;6.19;100.00
27429;BME280;14881;48.092;11.574;2023-01-15T04:15:34;94296.53;;;6.24;100.00
27429;BME280;14881;48.092;11.574;2023-01-15T04:18:02;94300.25;;;6.28;100.00
27429;BME280;14881;48.092;11.574;2023-01-15T04:20:29;94297.56;;;6.28;100.00
27429;BME280;14881;48.092;11.574;2023-01-15T04:22:57;94290.66;;;6.22;100.00
27429;BME280;14881;48.092;11.574;2023-01-15T04:25:25;94290.94;;;6.20;100.00
27429;BME280;14881;48.092;11.574;2023-01-15T04:27:53;94298.28;;;6.15;100.00
27429;BME280;14881;48.092;11.574;2023-01-15T04:30:21;94297.28;;;6.11;100.00
27429;BME280;14881;48.092;11.574;2023-01-15T04:32:51;94294.84;;;6.09;100.00
27429;BME280;14881;48.092;11.574;2023-01-15T04:35:19;94284.53;;;5.98;100.00
27429;BME280;14881;48.092;11.574;2023-01-15T04:37:47;94291.56;;;5.93;100.00
27429;BME280;14881;48.092;11.574;2023-01-15T04:40:15;94289.47;;;5.90;100.00
27429;BME280;14881;48.092;11.574;2023-01-15T04:42:56;94278.22;;;5.83;100.00
27429;BME280;14881;48.092;11.574;2023-01-15T04:45:42;94272.88;;;5.78;100.00
27429;BME280;14881;48.092;11.574;2023-01-15T04:48:11;94271.28;;;5.77;100.00
27429;BME280;14881;48.092;11.574;2023-01-15T04:50:39;94274.28;;;5.76;100.00
27429;BME280;14881;48.092;11.574;2023-01-15T04:53:07;94262.69;;;5.75;100.00
27429;BME280;14881;48.092;11.574;2023-01-15T04:55:34;94270.06;;;5.70;100.00
27429;BME280;14881;48.092;11.574;2023-01-15T04:58:02;94273.84;;;5.69;100.00
27429;BME280;14881;48.092;11.574;2023-01-15T05:00:30;94277.34;;;5.69;100.00
27429;BME280;14881;48.092;11.574;2023-01-15T05:02:57;94275.22;;;5.66;100.00
27429;BME280;14881;48.092;11.574;2023-01-15T05:05:27;94277.16;;;5.60;100.00
27429;BME280;14881;48.092;11.574;2023-01-15T05:07:54;94279.06;;;5.60;100.00
27429;BME280;14881;48.092;11.574;2023-01-15T05:10:22;94276.94;;;5.57;100.00
27429;BME280;14881;48.092;11.574;2023-01-15T05:12:50;94264.06;;;5.54;100.00
27429;BME280;14881;48.092;11.574;2023-01-15T05:15:17;94272.44;;;5.52;100.00
27429;BME280;14881;48.092;11.574;2023-01-15T05:17:45;94285.81;;;5.57;100.00
27429;BME280;14881;48.092;11.574;2023-01-15T05:20:13;94287.38;;;5.64;100.00
27429;BME280;14881;48.092;11.574;2023-01-15T05:22:42;94284.94;;;5.86;100.00
27429;BME280;14881;48.092;11.574;2023-01-15T05:25:10;94275.97;;;6.28;100.00
27429;BME280;14881;48.092;11.574;2023-01-15T05:27:38;94264.59;;;6.82;100.00
27429;BME280;14881;48.092;11.574;2023-01-15T05:30:07;94263.72;;;7.01;100.00
27429;BME280;14881;48.092;11.574;2023-01-15T05:32:35;94265.03;;;7.17;100.00
27429;BME280;14881;48.092;11.574;2023-01-15T05:35:03;94249.63;;;7.31;100.00
27429;BME280;14881;48.092;11.574;2023-01-15T05:37:31;94247.63;;;7.50;100.00
27429;BME280;14881;48.092;11.574;2023-01-15T05:40:00;94244.81;;;7.69;100.00
27429;BME280;14881;48.092;11.574;2023-01-15T05:42:28;94241.50;;;7.72;100.00
27429;BME280;14881;48.092;11.574;2023-01-15T05:44:56;94236.41;;;7.71;100.00
27429;BME280;14881;48.092;11.574;2023-01-15T05:47:23;94240.72;;;7.72;100.00
27429;BME280;14881;48.092;11.574;2023-01-15T05:49:51;94245.53;;;7.75;100.00
27429;BME280;14881;48.092;11.574;2023-01-15T05:52:19;94248.28;;;7.83;100.00
27429;BME280;14881;48.092;11.574;2023-01-15T05:54:48;94246.59;;;7.87;100.00
27429;BME280;14881;48.092;11.574;2023-01-15T05:57:17;94250.78;;;7.93;100.00
27429;BME280;14881;48.092;11.574;2023-01-15T05:59:45;94256.66;;;8.09;100.00
27429;BME280;14881;48.092;11.574;2023-01-15T06:02:15;94263.97;;;8.09;100.00
27429;BME280;14881;48.092;11.574;2023-01-15T06:04:43;94260.38;;;8.13;100.00
27429;BME280;14881;48.092;11.574;2023-01-15T06:07:11;94259.22;;;8.14;100.00
27429;BME280;14881;48.092;11.574;2023-01-15T06:09:38;94254.56;;;8.06;100.00
27429;BME280;14881;48.092;11.574;2023-01-15T06:12:06;94245.56;;;7.97;100.00
27429;BME280;14881;48.092;11.574;2023-01-15T06:14:35;94235.06;;;7.82;100.00
27429;BME280;14881;48.092;11.574;2023-01-15T06:17:03;94240.72;;;7.72;100.00
27429;BME280;14881;48.092;11.574;2023-01-15T06:19:31;94238.03;;;7.58;100.00
27429;BME280;14881;48.092;11.574;2023-01-15T06:21:58;94241.72;;;7.62;100.00
27429;BME280;14881;48.092;11.574;2023-01-15T06:24:26;94250.50;;;7.81;100.00
27429;BME280;14881;48.092;11.574;2023-01-15T06:26:54;94242.66;;;8.07;100.00
27429;BME280;14881;48.092;11.574;2023-01-15T06:29:21;94233.84;;;8.37;100.00
27429;BME280;14881;48.092;11.574;2023-01-15T06:31:51;94242.16;;;8.63;100.00
27429;BME280;14881;48.092;11.574;2023-01-15T06:34:18;94250.03;;;8.73;100.00
27429;BME280;14881;48.092;11.574;2023-01-15T06:36:46;94247.09;;;9.23;100.00
27429;BME280;14881;48.092;11.574;2023-01-15T06:39:14;94245.25;;;9.89;100.00
27429;BME280;14881;48.092;11.574;2023-01-15T06:41:41;94239.56;;;10.17;100.00
27429;BME280;14881;48.092;11.574;2023-01-15T06:44:27;94238.16;;;10.62;100.00
27429;BME280;14881;48.092;11.574;2023-01-15T06:47:15;94223.22;;;10.94;100.00
27429;BME280;14881;48.092;11.574;2023-01-15T06:49:52;94214.53;;;11.18;100.00
27429;BME280;14881;48.092;11.574;2023-01-15T06:52:21;94236.19;;;11.44;100.00
27429;BME280;14881;48.092;11.574;2023-01-15T06:54:49;94235.22;;;11.48;100.00
27429;BME280;14881;48.092;11.574;2023-01-15T06:57:17;94221.13;;;11.46;100.00
27429;BME280;14881;48.092;11.574;2023-01-15T06:59:45;94215.84;;;11.50;100.00
27429;BME280;14881;48.092;11.574;2023-01-15T07:02:14;94228.31;;;11.51;100.00
27429;BME280;14881;48.092;11.574;2023-01-15T07:04:43;94228.81;;;11.53;100.00
27429;BME280;14881;48.092;11.574;2023-01-15T07:07:11;94226.72;;;11.50;100.00
27429;BME280;14881;48.092;11.574;2023-01-15T07:09:39;94219.66;;;11.58;100.00
27429;BME280;14881;48.092;11.574;2023-01-15T07:12:06;94228.31;;;11.51;100.00
27429;BME280;14881;48.092;11.574;2023-01-15T07:14:34;94222.22;;;11.54;100.00
27429;BME280;14881;48.092;11.574;2023-01-15T07:17:02;94223.34;;;11.53;100.00
27429;BME280;14881;48.092;11.574;2023-01-15T07:19:31;94225.94;;;11.49;100.00
27429;BME280;14881;48.092;11.574;2023-01-15T07:21:59;94221.13;;;11.46;100.00
27429;BME280;14881;48.092;11.574;2023-01-15T07:24:26;94212.06;;;11.42;100.00
27429;BME280;14881;48.092;11.574;2023-01-15T07:26:54;94215.91;;;11.33;100.00
27429;BME280;14881;48.092;11.574;2023-01-15T07:29:22;94223.78;;;11.26;100.00
27429;BME280;14881;48.092;11.574;2023-01-15T07:31:50;94217.94;;;11.44;100.00
27429;BME280;14881;48.092;11.574;2023-01-15T07:34:18;94206.19;;;11.61;100.00
27429;BME280;14881;48.092;11.574;2023-01-15T07:36:48;94211.50;;;11.58;100.00
27429;BME280;14881;48.092;11.574;2023-01-15T07:39:15;94207.19;;;11.57;100.00
27429;BME280;14881;48.092;11.574;2023-01-15T07:41:43;94228.00;;;11.52;100.00
27429;BME280;14881;48.092;11.574;2023-01-15T07:44:28;94228.72;;;11.70;100.00
27429;BME280;14881;48.092;11.574;2023-01-15T07:47:17;94232.38;;;11.74;100.00
27429;BME280;14881;48.092;11.574;2023-01-15T07:50:05;94220.88;;;11.77;100.00
27429;BME280;14881;48.092;11.574;2023-01-15T07:52:34;94242.75;;;11.81;100.00
27429;BME280;14881;48.092;11.574;2023-01-15T07:55:03;94230.47;;;11.75;100.00
27429;BME280;14881;48.092;11.574;2023-01-15T07:57:30;94256.38;;;11.81;100.00
27429;BME280;14881;48.092;11.574;2023-01-15T07:59:58;94237.22;;;11.77;100.00
27429;BME280;14881;48.092;11.574;2023-01-15T08:02:26;94235.06;;;11.83;100.00
27429;BME280;14881;48.092;11.574;2023-01-15T08:04:54;94232.09;;;11.76;100.00
27429;BME280;14881;48.092;11.574;2023-01-15T08:07:22;94240.03;;;11.81;100.00
27429;BME280;14881;48.092;11.574;2023-01-15T08:09:51;94230.16;;;11.76;100.00
27429;BME280;14881;48.092;11.574;2023-01-15T08:12:19;94231.41;;;11.79;100.00
27429;BME280;14881;48.092;11.574;2023-01-15T08:15:05;94231.13;;;11.72;100.00
27429;BME280;14881;48.092;11.574;2023-01-15T08:17:43;94230.16;;;11.68;100.00
27429;BME280;14881;48.092;11.574;2023-01-15T08:20:13;94230.47;;;11.75;100.00
27429;BME280;14881;48.092;11.574;2023-01-15T08:22:41;94234.81;;;11.76;100.00
27429;BME280;14881;48.092;11.574;2023-01-15T08:25:13;94226.78;;;11.71;100.00
27429;BME280;14881;48.092;11.574;2023-01-15T08:27:42;94229.84;;;11.69;100.00
27429;BME280;14881;48.092;11.574;2023-01-15T08:30:12;94229.88;;;11.61;100.00
27429;BME280;14881;48.092;11.574;2023-01-15T08:32:41;94233.28;;;11.49;100.00
27429;BME280;14881;48.092;11.574;2023-01-15T08:35:10;94235.38;;;11.43;100.00
27429;BME280;14881;48.092;11.574;2023-01-15T08:37:38;94222.47;;;11.40;100.00
27429;BME280;14881;48.092;11.574;2023-01-15T08:40:07;94220.72;;;11.36;100.00
27429;BME280;14881;48.092;11.574;2023-01-15T08:42:36;94220.34;;;11.46;100.00
27429;BME280;14881;48.092;11.574;2023-01-15T08:45:05;94219.22;;;11.47;100.00
27429;BME280;14881;48.092;11.574;2023-01-15T08:47:33;94205.94;;;11.45;100.00
27429;BME280;14881;48.092;11.574;2023-01-15T08:50:03;94205.91;;;11.54;100.00
27429;BME280;14881;48.092;11.574;2023-01-15T08:52:31;94196.25;;;11.65;100.00
27429;BME280;14881;48.092;11.574;2023-01-15T08:54:59;94189.69;;;11.66;100.00
27429;BME280;14881;48.092;11.574;2023-01-15T08:57:27;94184.00;;;11.89;100.00
27429;BME280;14881;48.092;11.574;2023-01-15T08:59:56;94186.72;;;11.89;100.00
27429;BME280;14881;48.092;11.574;2023-01-15T09:02:24;94184.81;;;11.80;100.00
27429;BME280;14881;48.092;11.574;2023-01-15T09:04:53;94178.94;;;11.70;100.00
27429;BME280;14881;48.092;11.574;2023-01-15T09:07:21;94179.94;;;11.65;100.00
27429;BME280;14881;48.092;11.574;2023-01-15T09:09:48;94175.13;;;11.62;100.00
27429;BME280;14881;48.092;11.574;2023-01-15T09:12:16;94169.66;;;11.71;100.00
27429;BME280;14881;48.092;11.574;2023-01-15T09:14:44;94162.25;;;11.80;100.00
27429;BME280;14881;48.092;11.574;2023-01-15T09:17:30;94157.50;;;11.77;100.00
27429;BME280;14881;48.092;11.574;2023-01-15T09:19:58;94157.91;;;11.88;100.00
27429;BME280;14881;48.092;11.574;2023-01-15T09:22:28;94148.47;;;12.06;100.00
27429;BME280;14881;48.092;11.574;2023-01-15T09:24:56;94137.34;;;12.32;100.00
27429;BME280;14881;48.092;11.574;2023-01-15T09:27:24;94136.88;;;12.50;100.00
27429;BME280;14881;48.092;11.574;2023-01-15T09:29:52;94115.56;;;12.65;100.00
27429;BME280;14881;48.092;11.574;2023-01-15T09:32:20;94104.38;;;12.78;100.00
27429;BME280;14881;48.092;11.574;2023-01-15T09:34:49;94112.09;;;12.88;100.00
27429;BME280;14881;48.092;11.574;2023-01-15T09:37:17;94089.88;;;12.99;100.00
27429;BME280;14881;48.092;11.574;2023-01-15T09:39:45;94103.06;;;13.09;100.00
27429;BME280;14881;48.092;11.574;2023-01-15T09:42:26;94131.28;;;13.25;100.00
27429;BME280;14881;48.092;11.574;2023-01-15T09:45:20;94104.09;;;13.41;100.00
27429;BME280;14881;48.092;11.574;2023-01-15T09:48:05;94110.25;;;13.50;100.00
27429;BME280;14881;48.092;11.574;2023-01-15T09:50:44;94095.44;;;13.63;100.00
27429;BME280;14881;48.092;11.574;2023-01-15T09:53:42;94099.09;;;13.67;100.00
27429;BME280;14881;48.092;11.574;2023-01-15T09:56:18;94104.97;;;13.69;100.00
27429;BME280;14881;48.092;11.574;2023-01-15T09:58:48;94121.59;;;13.64;100.00
27429;BME280;14881;48.092;11.574;2023-01-15T10:01:18;94109.44;;;13.62;100.00
27429;BME280;14881;48.092;11.574;2023-01-15T10:03:50;94121.03;;;13.58;100.00
27429;BME280;14881;48.092;11.574;2023-01-15T10:06:24;94143.88;;;13.54;100.00
27429;BME280;14881;48.092;11.574;2023-01-15T10:09:00;94155.94;;;13.53;100.00
27429;BME280;14881;48.092;11.574;2023-01-15T10:11:37;94150.81;;;13.39;100.00
27429;BME280;14881;48.092;11.574;2023-01-15T10:14:35;94182.41;;;13.28;100.00
27429;BME280;14881;48.092;11.574;2023-01-15T10:17:16;94257.59;;;12.42;100.00
27429;BME280;14881;48.092;11.574;2023-01-15T10:19:45;94279.34;;;10.99;100.00
27429;BME280;14881;48.092;11.574;2023-01-15T10:22:22;94301.59;;;9.92;100.00
27429;BME280;14881;48.092;11.574;2023-01-15T10:24:56;94346.41;;;8.97;100.00
27429;BME280;14881;48.092;11.574;2023-01-15T10:27:27;94352.06;;;8.51;100.00
27429;BME280;14881;48.092;11.574;2023-01-15T10:30:02;94367.94;;;8.16;100.00
27429;BME280;14881;48.092;11.574;2023-01-15T10:32:39;94363.75;;;7.69;100.00
27429;BME280;14881;48.092;11.574;2023-01-15T10:35:33;94384.31;;;7.38;100.00
27429;BME280;14881;48.092;11.574;2023-01-15T10:38:12;94400.06;;;7.17;100.00
27429;BME280;14881;48.092;11.574;2023-01-15T10:40:57;94406.06;;;7.14;100.00
27429;BME280;14881;48.092;11.574;2023-01-15T10:43:36;94407.19;;;6.94;100.00
27429;BME280;14881;48.092;11.574;2023-01-15T10:46:10;94394.78;;;6.93;100.00
27429;BME280;14881;48.092;11.574;2023-01-15T10:48:42;94404.47;;;6.94;100.00
27429;BME280;14881;48.092;11.574;2023-01-15T10:51:15;94406.69;;;6.92;100.00
27429;BME280;14881;48.092;11.574;2023-01-15T10:53:49;94412.97;;;6.87;100.00
27429;BME280;14881;48.092;11.574;2023-01-15T10:56:27;94422.00;;;6.78;100.00
27429;BME280;14881;48.092;11.574;2023-01-15T10:58:58;94413.84;;;6.83;100.00
27429;BME280;14881;48.092;11.574;2023-01-15T11:01:30;94420.19;;;6.92;100.00
27429;BME280;14881;48.092;11.574;2023-01-15T11:04:01;94436.16;;;6.70;100.00
27429;BME280;14881;48.092;11.574;2023-01-15T11:06:30;94445.88;;;6.71;100.00
27429;BME280;14881;48.092;11.574;2023-01-15T11:08:59;94434.69;;;6.58;100.00
27429;BME280;14881;48.092;11.574;2023-01-15T11:11:39;94430.41;;;6.57;100.00
27429;BME280;14881;48.092;11.574;2023-01-15T11:14:31;94431.63;;;6.46;100.00
27429;BME280;14881;48.092;11.574;2023-01-15T11:17:17;94420.31;;;6.44;100.00
27429;BME280;14881;48.092;11.574;2023-01-15T11:20:04;94425.13;;;6.47;100.00
27429;BME280;14881;48.092;11.574;2023-01-15T11:22:39;94428.88;;;6.51;100.00
27429;BME280;14881;48.092;11.574;2023-01-15T11:25:10;94447.31;;;6.63;100.00
27429;BME280;14881;48.092;11.574;2023-01-15T11:27:38;94456.59;;;6.57;100.00
27429;BME280;14881;48.092;11.574;2023-01-15T11:30:24;94463.19;;;6.46;100.00
27429;BME280;14881;48.092;11.574;2023-01-15T11:32:55;94465.84;;;6.27;100.00
27429;BME280;14881;48.092;11.574;2023-01-15T11:35:23;94476.00;;;6.11;100.00
27429;BME280;14881;48.092;11.574;2023-01-15T11:38:01;94486.69;;;5.98;100.00
27429;BME280;14881;48.092;11.574;2023-01-15T11:40:31;94495.13;;;5.86;100.00
27429;BME280;14881;48.092;11.574;2023-01-15T11:42:59;94490.47;;;5.68;100.00
27429;BME280;14881;48.092;11.574;2023-01-15T11:45:48;94494.91;;;5.53;100.00
27429;BME280;14881;48.092;11.574;2023-01-15T11:48:34;94505.22;;;5.41;100.00
27429;BME280;14881;48.092;11.574;2023-01-15T11:51:27;94531.22;;;5.22;100.00
27429;BME280;14881;48.092;11.574;2023-01-15T11:53:59;94543.41;;;5.09;100.00
27429;BME280;14881;48.092;11.574;2023-01-15T11:56:32;94553.91;;;5.11;100.00
27429;BME280;14881;48.092;11.574;2023-01-15T11:59:02;94564.16;;;5.04;100.00
27429;BME280;14881;48.092;11.574;2023-01-15T12:01:32;94557.22;;;4.98;100.00
27429;BME280;14881;48.092;11.574;2023-01-15T12:04:06;94569.63;;;4.94;100.00
27429;BME280;14881;48.092;11.574;2023-01-15T12:06:35;94592.28;;;4.82;100.00
27429;BME280;14881;48.092;11.574;2023-01-15T12:09:15;94602.00;;;4.73;100.00
27429;BME280;14881;48.092;11.574;2023-01-15T12:11:59;94608.22;;;4.64;100.00
27429;BME280;14881;48.092;11.574;2023-01-15T12:14:52;94617.91;;;4.65;100.00
27429;BME280;14881;48.092;11.574;2023-01-15T12:17:33;94620.06;;;4.63;100.00
27429;BME280;14881;48.092;11.574;2023-01-15T12:20:15;94623.84;;;4.62;100.00
27429;BME280;14881;48.092;11.574;2023-01-15T12:22:58;94630.56;;;4.64;100.00
27429;BME280;14881;48.092;11.574;2023-01-15T12:25:43;94646.66;;;4.69;100.00
27429;BME280;14881;48.092;11.574;2023-01-15T12:28:21;94647.78;;;4.58;100.00
27429;BME280;14881;48.092;11.574;2023-01-15T12:30:57;94648.59;;;4.53;100.00
27429;BME280;14881;48.092;11.574;2023-01-15T12:33:36;94643.75;;;4.50;100.00
27429;BME280;14881;48.092;11.574;2023-01-15T12:36:13;94648.34;;;4.50;100.00
27429;BME280;14881;48.092;11.574;2023-01-15T12:38:49;94653.47;;;4.41;100.00
27429;BME280;14881;48.092;11.574;2023-01-15T12:41:22;94648.34;;;4.45;100.00
27429;BME280;14881;48.092;11.574;2023-01-15T12:44:15;94658.84;;;4.41;100.00
27429;BME280;14881;48.092;11.574;2023-01-15T12:47:06;94660.72;;;4.41;100.00
27429;BME280;14881;48.092;11.574;2023-01-15T12:49:42;94660.19;;;4.49;100.00
27429;BME280;14881;48.092;11.574;2023-01-15T12:52:16;94667.19;;;4.45;100.00
27429;BME280;14881;48.092;11.574;2023-01-15T12:55:04;94670.94;;;4.49;100.00
27429;BME280;14881;48.092;11.574;2023-01-15T12:57:37;94682.47;;;4.54;100.00
27429;BME280;14881;48.092;11.574;2023-01-15T13:00:14;94683.53;;;4.59;100.00
27429;BME280;14881;48.092;11.574;2023-01-15T13:03:02;94682.19;;;4.56;100.00
27429;BME280;14881;48.092;11.574;2023-01-15T13:05:35;94694.84;;;4.55;100.00
27429;BME280;14881;48.092;11.574;2023-01-15T13:08:10;94690.00;;;4.58;100.00
27429;BME280;14881;48.092;11.574;2023-01-15T13:10:41;94695.09;;;4.64;100.00
27429;BME280;14881;48.092;11.574;2023-01-15T13:13:14;94698.56;;;4.70;100.00
27429;BME280;14881;48.092;11.574;2023-01-15T13:15:57;94698.56;;;4.70;100.00
27429;BME280;14881;48.092;11.574;2023-01-15T13:18:33;94705.88;;;4.64;100.00